Time;durP1;ratioP1;P1;durP2;ratioP2;P2;SDS_P1;SDS_P2;PMS_P1;PMS_P2;Temp;Humidity;BMP_temperature;BMP_pressure;BME280_temperature;BME280_humidity;BME280_pressure;Samples;Min_cycle;Max_cycle;Signal;HPM_P1;HPM_P2
2023/01/30 00:00:55;;;;;;;45.87;22.63;;;;;;;2.41;90.19;97239.00;5046100;28;20190;-76
2023/01/30 00:03:23;;;;;;;46.50;25.10;;;;;;;2.49;90.66;97233.84;5046594;28;20200;-75
2023/01/30 00:05:51;;;;;;;46.43;21.57;;;;;;;2.59;90.53;97242.22;5046849;28;20272;-75
2023/01/30 00:08:19;;;;;;;39.67;21.50;;;;;;;2.67;88.81;97248.94;5045828;28;20683;-75
2023/01/30 00:10:46;;;;;;;45.53;24.47;;;;;;;2.70;88.17;97235.28;5045413;28;20201;-77
2023/01/30 00:13:14;;;;;;;40.87;21.30;;;;;;;2.72;87.44;97244.63;5044591;28;20995;-76
2023/01/30 00:15:41;;;;;;;38.80;20.03;;;;;;;2.69;86.91;97248.94;5046873;28;20224;-76
2023/01/30 00:18:09;;;;;;;32.17;18.47;;;;;;;2.66;86.30;97241.31;5046179;28;20190;-75
2023/01/30 00:20:36;;;;;;;30.07;16.03;;;;;;;2.72;83.88;97249.72;5045057;28;20584;-75
2023/01/30 00:23:04;;;;;;;22.90;12.13;;;;;;;2.82;82.38;97243.66;5046589;28;20187;-75
2023/01/30 00:25:31;;;;;;;21.37;12.70;;;;;;;2.72;81.31;97249.72;5045851;28;20285;-76
2023/01/30 00:28:00;;;;;;;36.33;19.03;;;;;;;2.80;85.11;97237.72;5046666;28;20190;-76
2023/01/30 00:30:28;;;;;;;37.60;20.40;;;;;;;2.75;86.67;97246.28;5045499;28;20198;-76
2023/01/30 00:32:58;;;;;;;35.97;18.33;;;;;;;2.29;89.90;97249.38;5046674;28;20251;-76
2023/01/30 00:35:27;;;;;;;35.30;19.00;;;;;;;2.02;92.32;97236.03;5044219;28;20708;-77
2023/01/30 00:37:56;;;;;;;40.63;18.77;;;;;;;1.99;92.26;97236.91;5045128;28;20187;-76
2023/01/30 00:40:25;;;;;;;35.93;18.80;;;;;;;2.06;92.77;97235.97;5049083;28;20239;-76
2023/01/30 00:48:28;;;;;;;38.10;17.23;;;;;;;2.26;91.71;97225.56;5048306;28;20474;-75
2023/01/30 00:50:55;;;;;;;38.73;19.33;;;;;;;2.16;91.86;97224.81;5048673;28;20689;-77
2023/01/30 00:53:23;;;;;;;35.50;17.67;;;;;;;2.27;92.11;97217.03;5048845;28;20269;-75
2023/01/30 00:55:51;;;;;;;34.40;18.93;;;;;;;2.40;91.58;97216.88;5031584;28;20229;-76
2023/01/30 00:58:20;;;;;;;39.00;18.47;;;;;;;2.43;90.75;97223.69;5030807;28;20565;-75
2023/01/30 01:00:47;;;;;;;32.63;17.00;;;;;;;2.40;90.48;97226.25;5048948;28;20651;-75
2023/01/30 01:03:15;;;;;;;38.27;17.50;;;;;;;2.24;90.39;97220.47;5048818;28;20186;-75
2023/01/30 01:05:42;;;;;;;33.37;16.30;;;;;;;2.44;90.66;97225.34;5031438;28;20651;-75
2023/01/30 01:08:13;;;;;;;32.23;16.33;;;;;;;2.44;90.55;97220.25;5049482;28;20182;-74
2023/01/30 01:10:41;;;;;;;31.67;17.87;;;;;;;2.42;90.10;97204.09;5049712;28;20218;-76
2023/01/30 01:13:09;;;;;;;36.03;18.00;;;;;;;2.45;90.30;97216.84;5048914;28;20696;-74
2023/01/30 01:15:36;;;;;;;34.60;17.00;;;;;;;2.64;90.08;97220.03;5049930;28;20553;-75
2023/01/30 01:18:04;;;;;;;38.10;19.33;;;;;;;2.59;89.91;97214.97;5048555;28;20201;-74
2023/01/30 01:20:32;;;;;;;37.57;18.87;;;;;;;2.62;89.91;97214.91;5048434;28;20225;-75
2023/01/30 01:22:58;;;;;;;33.90;19.03;;;;;;;2.69;90.08;97211.44;5048897;28;20204;-74
2023/01/30 01:25:26;;;;;;;36.07;17.67;;;;;;;2.59;90.29;97209.84;5047705;28;20687;-75
2023/01/30 01:27:54;;;;;;;32.60;17.47;;;;;;;2.68;90.05;97208.91;5049158;28;20190;-75
2023/01/30 01:30:21;;;;;;;37.07;17.83;;;;;;;2.52;90.08;97200.56;5048669;28;20277;-74
2023/01/30 01:32:48;;;;;;;35.60;17.07;;;;;;;2.64;90.91;97202.97;5049668;28;20308;-75
2023/01/30 01:35:15;;;;;;;35.83;18.70;;;;;;;2.64;90.58;97194.47;5048363;28;20189;-74
2023/01/30 01:37:43;;;;;;;37.23;18.50;;;;;;;2.58;90.76;97197.94;5049427;28;20715;-74
2023/01/30 01:43:14;;;;;;;41.27;18.23;;;;;;;2.55;90.87;97171.56;5048686;28;20185;-74
2023/01/30 01:45:42;;;;;;;40.80;19.00;;;;;;;2.48;91.14;97165.69;5047935;28;20202;-74
2023/01/30 01:48:33;;;;;;;35.17;16.67;;;;;;;2.53;91.40;97186.06;5046905;28;20711;-74
2023/01/30 01:51:10;;;;;;;43.03;18.37;;;;;;;2.60;91.57;97174.94;5047799;28;20191;-75
2023/01/30 01:53:53;;;;;;;37.67;18.57;;;;;;;2.43;91.47;97167.47;5047486;28;20277;-76
2023/01/30 01:56:21;;;;;;;33.40;17.70;;;;;;;2.31;92.54;97167.56;5046251;28;20208;-75
2023/01/30 01:59:00;;;;;;;39.90;18.87;;;;;;;2.30;92.76;97171.88;5047710;28;20680;-74
2023/01/30 02:01:29;;;;;;;38.60;18.60;;;;;;;2.38;93.29;97169.22;5030119;28;20230;-75
2023/01/30 02:04:01;;;;;;;37.23;18.43;;;;;;;2.33;92.08;97145.41;5047315;28;20201;-75
2023/01/30 02:06:29;;;;;;;38.50;18.20;;;;;;;2.47;91.92;97164.00;5046998;28;20194;-75
2023/01/30 02:09:04;;;;;;;37.80;18.60;;;;;;;2.40;92.04;97164.94;5046977;28;20229;-75
2023/01/30 02:11:43;;;;;;;39.97;19.20;;;;;;;2.46;92.34;97162.28;5030976;28;20215;-74
2023/01/30 02:14:13;;;;;;;40.67;18.10;;;;;;;2.51;92.21;97165.66;5046198;28;20285;-75
2023/01/30 02:16:42;;;;;;;42.93;19.13;;;;;;;2.52;92.52;97149.44;5048687;28;20257;-75
2023/01/30 02:19:34;;;;;;;39.33;17.80;;;;;;;2.56;92.14;97152.78;5047901;28;20738;-75
2023/01/30 02:22:14;;;;;;;39.37;19.20;;;;;;;2.61;91.68;97157.00;5048112;28;20604;-75
2023/01/30 02:25:16;;;;;;;41.30;18.53;;;;;;;2.36;92.91;97137.72;5030594;28;20205;-75
2023/01/30 02:28:11;;;;;;;38.83;18.37;;;;;;;2.31;93.54;97152.25;5046391;28;20186;-77
2023/01/30 02:31:00;;;;;;;38.67;18.47;;;;;;;2.25;93.57;97144.66;5029962;28;20194;-77
2023/01/30 02:33:40;;;;;;;35.50;17.43;;;;;;;2.05;93.86;97138.94;5030839;28;20610;-75
2023/01/30 02:36:08;;;;;;;37.93;16.60;;;;;;;1.61;95.42;97145.34;5046120;28;20201;-74
2023/01/30 02:38:44;;;;;;;39.03;18.13;;;;;;;1.55;96.15;97137.75;5046857;28;20193;-74
2023/01/30 02:41:27;;;;;;;34.00;16.87;;;;;;;1.79;96.00;97133.28;5046355;28;20728;-75
2023/01/30 02:44:03;;;;;;;34.60;17.13;;;;;;;1.82;95.08;97135.78;5046109;28;20705;-75
2023/01/30 02:46:54;;;;;;;33.00;14.43;;;;;;;1.98;94.33;97143.25;5047187;28;20216;-75
2023/01/30 02:49:59;;;;;;;33.03;16.03;;;;;;;1.85;94.02;97134.06;5047784;28;20675;-75
2023/01/30 02:52:29;;;;;;;30.57;15.33;;;;;;;1.96;93.84;97134.78;4985322;28;20297;-76
2023/01/30 02:54:57;;;;;;;32.77;17.17;;;;;;;2.04;93.14;97143.19;4970193;28;20192;-76
2023/01/30 02:57:25;;;;;;;36.13;17.33;;;;;;;2.15;92.64;97137.97;5006133;28;20260;-76
2023/01/30 03:00:01;;;;;;;34.30;16.37;;;;;;;2.15;92.39;97140.53;5046697;28;20197;-76
2023/01/30 03:02:43;;;;;;;33.57;16.90;;;;;;;2.19;92.38;97144.72;5029230;28;20671;-75
2023/01/30 03:05:36;;;;;;;37.77;20.43;;;;;;;2.16;92.64;97144.78;5045730;28;20182;-74
2023/01/30 03:08:29;;;;;;;38.03;18.63;;;;;;;2.10;92.55;97142.31;5029746;28;20226;-75
2023/01/30 03:10:57;;;;;;;32.53;17.27;;;;;;;2.12;92.78;97141.41;4994851;28;20221;-75
2023/01/30 03:13:43;;;;;;;41.73;20.00;;;;;;;2.17;93.52;97146.47;5029201;28;20230;-74
2023/01/30 03:16:38;;;;;;;32.83;16.77;;;;;;;2.27;92.71;97140.38;5012961;28;20677;-75
2023/01/30 03:19:10;;;;;;;31.90;17.33;;;;;;;2.30;92.76;97137.81;5046900;28;20657;-75
2023/01/30 03:21:43;;;;;;;30.43;16.77;;;;;;;2.26;92.41;97146.38;5029397;28;20197;-75
2023/01/30 03:24:12;;;;;;;31.13;16.67;;;;;;;2.31;91.74;97142.88;5028848;28;20190;-75
2023/01/30 03:26:45;;;;;;;31.60;14.87;;;;;;;2.22;91.57;97144.72;5045495;28;20566;-75
2023/01/30 03:29:13;;;;;;;27.27;15.07;;;;;;;2.23;92.82;97149.78;5047149;28;20197;-74
2023/01/30 03:31:40;;;;;;;32.73;17.13;;;;;;;2.15;93.11;97150.75;5028167;28;20630;-74
2023/01/30 03:34:08;;;;;;;32.53;15.70;;;;;;;2.14;92.85;97131.19;5029471;28;20190;-74
2023/01/30 03:36:36;;;;;;;35.63;17.90;;;;;;;2.22;92.23;97145.56;5045070;28;20735;-75
2023/01/30 03:39:03;;;;;;;32.27;16.30;;;;;;;2.29;91.27;97139.50;5045804;28;20712;-74
2023/01/30 03:41:31;;;;;;;36.17;16.70;;;;;;;2.38;91.79;97153.88;5045167;28;20252;-75
2023/01/30 03:43:59;;;;;;;37.63;15.37;;;;;;;2.38;90.93;97143.66;5046560;28;20581;-75
2023/01/30 03:46:27;;;;;;;28.80;15.60;;;;;;;2.53;90.41;97146.03;5046768;28;20186;-75
2023/01/30 03:48:54;;;;;;;30.47;16.13;;;;;;;2.46;90.15;97140.16;5044861;28;20190;-75
2023/01/30 03:51:21;;;;;;;36.47;18.03;;;;;;;2.40;89.97;97126.59;5047092;28;20254;-75
2023/01/30 03:53:48;;;;;;;32.30;17.53;;;;;;;2.35;90.20;97133.47;5028061;28;20693;-77
2023/01/30 03:56:16;;;;;;;31.83;17.37;;;;;;;2.42;89.56;97145.31;5046715;28;20186;-76
2023/01/30 03:58:43;;;;;;;27.17;16.30;;;;;;;2.41;89.74;97141.91;5045020;28;20276;-76
2023/01/30 04:01:19;;;;;;;29.00;14.63;;;;;;;2.47;89.15;97126.50;5046392;28;20185;-76
2023/01/30 04:03:47;;;;;;;26.73;14.17;;;;;;;2.40;89.20;97131.72;5045442;28;20247;-75
2023/01/30 04:06:15;;;;;;;26.73;15.50;;;;;;;2.38;88.78;97134.28;5044626;28;20182;-74
2023/01/30 04:08:43;;;;;;;30.90;16.47;;;;;;;2.27;89.48;97128.47;5029013;28;20233;-75
2023/01/30 04:11:21;;;;;;;28.80;15.33;;;;;;;2.28;89.27;97137.81;5044685;28;20190;-74
2023/01/30 04:13:48;;;;;;;26.70;14.87;;;;;;;2.38;89.99;97121.53;5046805;28;20225;-74
2023/01/30 04:16:18;;;;;;;28.33;14.77;;;;;;;2.27;90.17;97122.50;5046327;28;20220;-75
2023/01/30 04:19:14;;;;;;;30.53;16.63;;;;;;;2.21;89.64;97112.34;4992767;28;20285;-74
2023/01/30 04:21:42;;;;;;;27.97;15.57;;;;;;;2.02;90.28;97126.22;5029648;28;20240;-74
2023/01/30 04:24:09;;;;;;;27.67;15.73;;;;;;;2.17;90.91;97118.38;5029887;28;20198;-74
2023/01/30 04:26:36;;;;;;;30.93;15.30;;;;;;;1.62;90.78;97108.78;5030445;28;20773;-73
2023/01/30 04:29:03;;;;;;;31.17;15.33;;;;;;;1.95;91.70;97122.03;5028985;28;20190;-75
2023/01/30 04:31:31;;;;;;;30.73;15.60;;;;;;;2.04;91.06;97121.94;5028838;28;20187;-74
2023/01/30 04:34:05;;;;;;;27.43;14.30;;;;;;;2.05;89.64;97113.41;5029323;28;20305;-73
2023/01/30 04:36:33;;;;;;;27.97;14.63;;;;;;;1.84;89.99;97124.69;5029597;28;20197;-73
2023/01/30 04:39:01;;;;;;;27.37;15.43;;;;;;;2.06;90.33;97125.31;5029130;28;20227;-73
2023/01/30 04:41:30;;;;;;;29.67;15.00;;;;;;;2.15;90.15;97100.50;5034292;28;20360;-73
2023/01/30 04:43:59;;;;;;;30.73;17.13;;;;;;;2.23;89.30;97115.72;5032949;28;20190;-73
2023/01/30 04:46:49;;;;;;;32.43;16.37;;;;;;;2.05;88.27;97108.28;5031879;28;20197;-75
2023/01/30 04:49:16;;;;;;;23.20;13.33;;;;;;;2.06;87.39;97112.56;5013701;28;20202;-74
2023/01/30 04:51:44;;;;;;;19.80;11.00;;;;;;;1.96;83.14;97113.53;5049150;28;20194;-73
2023/01/30 04:54:11;;;;;;;10.67;6.50;;;;;;;2.01;77.81;97120.25;5048491;28;20312;-73
2023/01/30 04:56:38;;;;;;;6.97;4.43;;;;;;;2.05;73.95;97113.41;5047879;28;20193;-74
2023/01/30 04:59:06;;;;;;;5.37;4.00;;;;;;;1.96;72.93;97108.41;5047316;28;20195;-72
2023/01/30 05:01:39;;;;;;;4.73;3.20;;;;;;;2.03;72.48;97115.97;5047566;28;20215;-74
2023/01/30 05:04:06;;;;;;;5.40;3.53;;;;;;;2.14;72.34;97111.56;5047532;28;20268;-73
2023/01/30 05:06:35;;;;;;;3.47;3.10;;;;;;;2.20;71.17;97110.69;5030247;28;20685;-74
2023/01/30 05:09:03;;;;;;;5.77;3.90;;;;;;;2.27;70.73;97115.69;5048133;28;20774;-74
2023/01/30 05:11:31;;;;;;;8.30;2.97;;;;;;;2.34;70.66;97108.78;5048586;28;20252;-76
2023/01/30 05:13:59;;;;;;;4.33;3.07;;;;;;;2.35;69.09;97111.31;5027904;28;20257;-72
2023/01/30 05:16:31;;;;;;;9.90;3.13;;;;;;;2.48;69.21;97115.41;5046174;28;20219;-74
2023/01/30 05:18:59;;;;;;;5.13;2.50;;;;;;;2.37;67.77;97113.88;5032664;28;20198;-76
2023/01/30 05:21:27;;;;;;;6.03;2.87;;;;;;;2.43;68.12;97111.25;5028232;28;20217;-74
2023/01/30 05:23:55;;;;;;;6.13;3.50;;;;;;;2.42;69.08;97119.75;5027364;28;20182;-74
2023/01/30 05:26:23;;;;;;;10.23;3.67;;;;;;;2.53;70.79;97114.50;5029539;28;20273;-73
2023/01/30 05:28:53;;;;;;;16.70;9.73;;;;;;;2.46;76.52;97111.19;5027075;28;20585;-77
2023/01/30 05:31:20;;;;;;;29.03;12.97;;;;;;;2.64;80.53;97116.03;5028795;28;20203;-74
2023/01/30 05:33:49;;;;;;;27.37;14.03;;;;;;;2.48;84.06;97124.78;5026594;28;20297;-75
2023/01/30 05:36:19;;;;;;;25.10;14.37;;;;;;;2.25;86.80;97116.56;5029056;28;20193;-76
2023/01/30 05:38:46;;;;;;;27.60;13.03;;;;;;;1.88;87.26;97123.81;5029187;28;20183;-74
2023/01/30 05:41:15;;;;;;;28.57;14.03;;;;;;;1.90;89.34;97116.97;5028116;28;20288;-74
2023/01/30 05:43:43;;;;;;;31.37;15.30;;;;;;;2.01;89.05;97122.81;5044243;28;20195;-76
2023/01/30 05:46:12;;;;;;;30.20;15.47;;;;;;;1.94;89.84;97130.56;5043452;28;20190;-74
2023/01/30 05:48:39;;;;;;;29.30;14.80;;;;;;;1.79;89.78;97141.78;5028793;28;20191;-77
2023/01/30 05:51:15;;;;;;;32.13;15.70;;;;;;;2.00;89.50;97133.06;5028499;28;20194;-74
2023/01/30 05:53:42;;;;;;;27.50;13.83;;;;;;;1.91;89.66;97130.59;5028304;28;20213;-74
2023/01/30 05:56:09;;;;;;;28.40;15.03;;;;;;;2.02;90.54;97126.22;5028552;28;20191;-75
2023/01/30 05:58:37;;;;;;;30.33;16.43;;;;;;;1.79;90.56;97143.47;5028077;28;20260;-74
2023/01/30 06:01:08;;;;;;;35.60;17.93;;;;;;;1.61;91.18;97135.13;5029023;28;20678;-75
2023/01/30 06:03:35;;;;;;;29.30;16.60;;;;;;;1.64;92.07;97140.22;5026576;28;20621;-75
2023/01/30 06:06:04;;;;;;;28.03;15.60;;;;;;;1.54;92.00;97132.66;5026819;28;20199;-74
2023/01/30 06:08:32;;;;;;;34.67;17.77;;;;;;;1.44;92.64;97131.06;5028151;28;20210;-73
2023/01/30 06:11:07;;;;;;;30.60;18.50;;;;;;;1.51;93.49;97138.63;5028114;28;20225;-74
2023/01/30 06:13:34;;;;;;;28.23;16.00;;;;;;;1.68;92.25;97141.03;5043427;28;20231;-75
2023/01/30 06:16:02;;;;;;;31.57;17.37;;;;;;;1.86;91.24;97132.31;5042755;28;20582;-74
2023/01/30 06:18:29;;;;;;;28.17;16.23;;;;;;;1.83;91.29;97132.38;5028607;28;20190;-76
2023/01/30 06:20:56;;;;;;;28.70;15.97;;;;;;;1.95;90.78;97147.56;5026422;28;20195;-75
2023/01/30 06:23:25;;;;;;;34.80;18.53;;;;;;;1.89;90.12;97145.06;5027954;28;20634;-74
2023/01/30 06:25:52;;;;;;;29.20;16.23;;;;;;;1.65;90.37;97148.69;5026365;28;20199;-74
2023/01/30 06:28:21;;;;;;;32.17;17.10;;;;;;;1.78;90.94;97129.88;5026176;28;20674;-73
2023/01/30 06:30:48;;;;;;;32.67;17.20;;;;;;;1.96;89.63;97146.72;5043046;28;20190;-74
2023/01/30 06:33:16;;;;;;;29.97;17.80;;;;;;;1.98;89.70;97133.06;5025675;28;20226;-74
2023/01/30 06:35:44;;;;;;;36.20;19.50;;;;;;;2.24;89.13;97151.50;5027717;28;20281;-74
2023/01/30 06:38:12;;;;;;;28.17;16.33;;;;;;;2.08;89.09;97144.03;5025513;28;20202;-75
2023/01/30 06:40:43;;;;;;;29.03;16.17;;;;;;;1.75;90.46;97140.13;5042882;28;20195;-74
2023/01/30 06:43:11;;;;;;;30.30;16.27;;;;;;;1.99;90.64;97139.00;5025954;28;20198;-74
2023/01/30 06:45:38;;;;;;;35.13;16.80;;;;;;;2.05;90.53;97144.03;5025688;28;20222;-74
2023/01/30 06:48:05;;;;;;;33.17;16.53;;;;;;;2.08;90.03;97132.09;5027696;28;20670;-74
2023/01/30 06:50:32;;;;;;;30.50;16.97;;;;;;;2.16;88.89;97122.66;5042073;28;20278;-74
2023/01/30 06:53:04;;;;;;;25.97;15.30;;;;;;;2.21;88.68;97145.56;5027503;28;20670;-74
2023/01/30 06:55:34;;;;;;;24.33;14.20;;;;;;;2.19;88.63;97129.41;5025359;28;20194;-73
2023/01/30 06:58:10;;;;;;;26.13;13.87;;;;;;;2.22;88.64;97132.78;5026118;28;20194;-75
2023/01/30 07:00:40;;;;;;;26.97;13.67;;;;;;;2.23;88.77;97124.25;5025766;28;20295;-75
2023/01/30 07:03:12;;;;;;;20.80;12.33;;;;;;;1.94;88.27;97130.56;5025391;28;20302;-74
2023/01/30 07:05:42;;;;;;;24.27;13.27;;;;;;;2.16;89.24;97139.69;5027445;28;20202;-75
2023/01/30 07:08:10;;;;;;;22.50;11.97;;;;;;;2.21;89.65;97136.19;5026353;28;20213;-74
2023/01/30 07:10:37;;;;;;;26.10;14.03;;;;;;;2.25;88.64;97152.31;5025862;28;20899;-74
2023/01/30 07:13:05;;;;;;;23.97;13.03;;;;;;;2.09;89.54;97135.50;5024945;28;20324;-73
2023/01/30 07:15:32;;;;;;;24.37;13.40;;;;;;;2.08;90.07;97141.47;5025671;28;20638;-74
2023/01/30 07:17:59;;;;;;;25.30;13.23;;;;;;;2.25;90.17;97129.34;5026930;28;20191;-75
2023/01/30 07:20:29;;;;;;;29.80;16.07;;;;;;;2.12;89.98;97130.34;5026290;28;20217;-72
2023/01/30 07:22:56;;;;;;;29.17;15.83;;;;;;;2.20;89.97;97128.56;5026820;28;20206;-73
2023/01/30 07:25:25;;;;;;;28.53;14.10;;;;;;;2.31;90.27;97126.69;5026280;28;20190;-75
2023/01/30 07:27:57;;;;;;;28.13;15.10;;;;;;;2.30;89.85;97127.59;5026924;28;20198;-75
2023/01/30 07:30:26;;;;;;;32.73;18.50;;;;;;;2.49;89.96;97127.31;5025112;28;20221;-77
2023/01/30 08:15:55;;;;;;;24.80;13.40;;;;;;;2.24;89.25;97102.13;4514813;27;15125071;-82
2023/01/30 08:24:06;;;;;;;31.90;17.17;;;;;;;2.95;87.37;97094.28;4945630;28;20216;-75
2023/01/30 08:26:33;;;;;;;36.90;16.33;;;;;;;3.07;85.92;97088.16;4961980;28;20240;-75
2023/01/30 08:29:00;;;;;;;32.13;15.93;;;;;;;3.29;84.67;97092.06;5001705;28;20311;-74
2023/01/30 08:31:27;;;;;;;30.53;15.97;;;;;;;3.49;83.83;97099.38;5000398;28;20664;-75
2023/01/30 08:33:54;;;;;;;35.80;18.37;;;;;;;3.46;82.05;97094.31;5001208;28;20248;-76
2023/01/30 08:36:21;;;;;;;27.77;14.67;;;;;;;3.46;81.61;97095.19;5015764;28;20202;-74
2023/01/30 08:38:48;;;;;;;31.33;17.73;;;;;;;3.56;80.17;97088.19;5042921;28;20288;-75
2023/01/30 08:41:15;;;;;;;31.07;16.50;;;;;;;3.73;79.49;97093.84;5043495;28;20681;-76
2023/01/30 08:43:42;;;;;;;20.93;12.33;;;;;;;3.73;78.92;97091.28;5042493;28;20195;-75
2023/01/30 08:46:08;;;;;;;18.77;10.50;;;;;;;3.67;77.11;97078.59;5043435;28;20197;-75
2023/01/30 08:48:39;;;;;;;13.90;7.97;;;;;;;3.74;75.03;97081.00;5041778;28;20214;-76
2023/01/30 08:51:16;;;;;;;15.07;7.83;;;;;;;3.88;73.72;97088.41;5042990;28;20196;-73
2023/01/30 08:53:43;;;;;;;10.50;7.53;;;;;;;3.79;73.14;97068.13;5042742;28;20333;-74
2023/01/30 08:56:10;;;;;;;14.13;7.50;;;;;;;3.89;73.04;97082.44;5042035;28;20203;-74
2023/01/30 08:58:37;;;;;;;16.27;8.83;;;;;;;3.90;71.58;97081.53;5043132;28;20202;-74
2023/01/30 09:01:05;;;;;;;19.93;9.10;;;;;;;3.88;71.87;97075.63;5042055;28;20207;-75
2023/01/30 09:03:33;;;;;;;17.17;7.87;;;;;;;4.08;71.37;97068.41;5043227;28;20209;-74
2023/01/30 09:06:00;;;;;;;12.77;8.00;;;;;;;4.22;69.79;97075.81;5041854;28;20197;-74
2023/01/30 09:08:27;;;;;;;13.03;7.40;;;;;;;4.17;69.29;97075.88;5042660;28;20250;-74
2023/01/30 09:11:02;;;;;;;13.57;6.73;;;;;;;4.26;68.38;97064.63;5042050;28;20243;-76
2023/01/30 09:13:31;;;;;;;13.17;7.13;;;;;;;4.27;69.70;97061.16;5042053;28;20253;-74
2023/01/30 09:15:58;;;;;;;15.63;7.57;;;;;;;4.41;69.76;97057.44;5056788;28;20231;-75
2023/01/30 09:18:25;;;;;;;9.17;5.10;;;;;;;4.55;67.37;97059.72;5043603;28;20202;-74
2023/01/30 09:21:00;;;;;;;17.70;6.87;;;;;;;4.53;67.71;97059.75;5062771;28;20290;-73
2023/01/30 09:23:27;;;;;;;11.40;6.70;;;;;;;4.58;67.74;97057.91;5061297;28;20214;-75
2023/01/30 09:25:54;;;;;;;14.67;6.83;;;;;;;4.65;68.36;97046.66;5055335;28;20231;-75
2023/01/30 09:28:21;;;;;;;10.40;6.07;;;;;;;4.57;68.36;97037.44;5030924;28;20198;-74
2023/01/30 09:30:48;;;;;;;11.00;6.63;;;;;;;4.65;66.85;97035.56;5048139;28;20228;-74
2023/01/30 09:33:19;;;;;;;7.03;5.63;;;;;;;4.47;65.93;97013.72;5049030;28;20306;-73
2023/01/30 09:35:49;;;;;;;15.33;6.73;;;;;;;4.69;65.12;97030.31;5029716;28;20785;-74
2023/01/30 09:38:17;;;;;;;11.13;6.00;;;;;;;4.58;66.61;97034.84;5049567;28;20207;-76
2023/01/30 09:40:59;;;;;;;9.00;5.43;;;;;;;4.64;64.79;97021.88;5030577;28;20199;-76
2023/01/30 09:43:32;;;;;;;11.20;6.23;;;;;;;4.53;64.42;97023.00;5048970;28;20739;-76
2023/01/30 09:46:08;;;;;;;13.30;8.10;;;;;;;4.81;64.58;97016.34;5030803;28;20194;-74
2023/01/30 09:48:49;;;;;;;10.27;6.03;;;;;;;4.84;64.90;97018.88;5047662;28;20220;-76
2023/01/30 09:51:31;;;;;;;19.90;7.87;;;;;;;4.77;64.79;97014.75;5048962;28;20216;-75
2023/01/30 09:54:21;;;;;;;13.50;7.03;;;;;;;4.83;63.33;97012.88;5048176;28;20220;-77
2023/01/30 09:56:55;;;;;;;15.13;6.50;;;;;;;4.69;64.25;96996.97;5030308;28;20196;-75
2023/01/30 09:59:29;;;;;;;9.80;4.57;;;;;;;4.68;63.01;96987.59;5048567;28;20264;-72
2023/01/30 10:02:22;;;;;;;23.40;11.33;;;;;;;4.75;63.59;96990.84;5047768;28;20199;-75
2023/01/30 10:04:51;;;;;;;10.37;6.03;;;;;;;4.76;63.74;96966.91;5048208;28;20209;-75
2023/01/30 10:07:29;;;;;;;25.63;7.87;;;;;;;4.93;64.17;96978.44;5047994;28;20698;-76
2023/01/30 10:10:11;;;;;;;15.90;7.10;;;;;;;5.13;63.10;96975.34;5047520;28;20200;-75
2023/01/30 10:12:44;;;;;;;8.40;5.10;;;;;;;5.14;62.44;96968.50;5048465;28;20196;-76
2023/01/30 10:15:13;;;;;;;8.50;5.33;;;;;;;5.06;62.73;96967.84;5046745;28;20245;-75
2023/01/30 10:18:10;;;;;;;10.53;6.40;;;;;;;5.00;62.27;96943.19;5048079;28;20192;-76
2023/01/30 10:20:47;;;;;;;12.47;5.30;;;;;;;5.34;62.25;96958.53;5022651;28;20218;-76
2023/01/30 10:23:40;;;;;;;8.80;4.93;;;;;;;5.20;61.40;96932.41;5047341;28;20229;-75
2023/01/30 10:26:13;;;;;;;10.80;6.17;;;;;;;5.37;61.15;96937.94;5032366;28;20205;-75
2023/01/30 10:29:14;;;;;;;8.13;6.03;;;;;;;5.09;61.13;96947.25;5028991;28;20282;-75
2023/01/30 10:31:50;;;;;;;10.23;6.87;;;;;;;5.10;61.47;96938.66;5043449;28;20266;-76
2023/01/30 10:34:24;;;;;;;8.63;5.77;;;;;;;5.08;61.57;96935.28;5047978;28;20236;-73
2023/01/30 10:37:08;;;;;;;13.80;7.03;;;;;;;5.02;62.94;96930.31;5045538;28;20268;-74
2023/01/30 10:39:46;;;;;;;11.57;6.17;;;;;;;5.08;61.78;96919.88;5030235;28;20286;-77
2023/01/30 10:43:07;;;;;;;7.50;4.77;;;;;;;4.92;59.35;96922.03;5047550;28;20183;-76
2023/01/30 10:45:56;;;;;;;8.53;5.43;;;;;;;5.06;58.74;96907.13;5046882;28;20269;-76
2023/01/30 10:48:57;;;;;;;7.47;4.97;;;;;;;4.91;57.91;96905.78;5047396;28;20691;-77
2023/01/30 10:52:06;;;;;;;11.23;6.63;;;;;;;4.73;60.78;96893.44;5047706;28;20294;-77
2023/01/30 10:54:46;;;;;;;8.20;5.60;;;;;;;4.73;58.62;96888.31;5027836;28;20431;-77
2023/01/30 10:57:13;;;;;;;8.63;5.30;;;;;;;4.70;58.55;96887.50;5047238;28;20615;-75
2023/01/30 10:59:49;;;;;;;10.20;6.20;;;;;;;4.62;59.55;96884.31;5047258;28;20945;-77
2023/01/30 11:02:58;;;;;;;9.07;5.90;;;;;;;4.60;58.70;96875.81;5046500;28;20225;-73
2023/01/30 11:05:49;;;;;;;11.03;5.27;;;;;;;4.71;59.02;96877.25;5029338;28;20679;-75
2023/01/30 11:08:20;;;;;;;6.20;4.33;;;;;;;4.72;57.93;96849.84;5047028;28;20294;-76
2023/01/30 11:10:49;;;;;;;8.03;4.93;;;;;;;4.96;56.78;96856.91;5046522;28;20319;-75
2023/01/30 11:13:19;;;;;;;10.50;5.63;;;;;;;4.79;57.59;96867.63;5047039;28;20324;-74
2023/01/30 11:15:49;;;;;;;8.67;5.57;;;;;;;4.55;58.78;96858.00;5045498;28;20227;-75
2023/01/30 11:18:19;;;;;;;10.73;5.67;;;;;;;4.72;58.89;96852.41;5046959;28;20256;-74
2023/01/30 11:21:16;;;;;;;11.77;6.47;;;;;;;4.68;59.82;96843.13;5046978;28;20190;-75
2023/01/30 11:23:43;;;;;;;10.43;6.50;;;;;;;4.80;57.83;96814.59;5046083;28;20235;-74
2023/01/30 11:26:23;;;;;;;13.60;6.80;;;;;;;4.99;56.99;96827.78;5012578;28;20198;-75
2023/01/30 11:28:57;;;;;;;14.10;5.27;;;;;;;5.01;56.54;96818.31;5045598;28;20256;-76
2023/01/30 11:31:27;;;;;;;13.97;6.07;;;;;;;5.27;56.06;96813.28;5046352;28;20259;-75
2023/01/30 11:34:19;;;;;;;16.80;6.97;;;;;;;5.16;56.73;96816.16;5046812;28;20200;-75
2023/01/30 11:36:49;;;;;;;10.80;5.83;;;;;;;5.01;56.21;96813.19;5045773;28;20263;-72
2023/01/30 11:39:20;;;;;;;14.17;7.40;;;;;;;5.06;57.02;96808.75;5028679;28;20285;-74
2023/01/30 11:41:57;;;;;;;10.17;6.03;;;;;;;5.12;56.88;96799.16;5027410;28;21469;-75
2023/01/30 11:44:29;;;;;;;8.33;5.30;;;;;;;5.17;56.10;96796.47;5046671;28;20289;-73
2023/01/30 11:47:02;;;;;;;9.67;6.63;;;;;;;4.97;57.43;96790.16;5027768;28;20628;-74
2023/01/30 11:49:53;;;;;;;7.00;4.97;;;;;;;4.74;55.84;96771.16;5045208;28;20206;-76
2023/01/30 11:52:42;;;;;;;14.10;8.47;;;;;;;4.48;57.40;96746.22;5046676;28;20195;-76
2023/01/30 11:55:19;;;;;;;11.10;7.67;;;;;;;4.52;57.40;96737.56;5027016;28;20225;-74
2023/01/30 11:57:55;;;;;;;6.87;4.57;;;;;;;4.68;55.52;96777.28;5028279;28;20199;-73
2023/01/30 12:00:46;;;;;;;12.33;6.20;;;;;;;4.66;56.89;96767.94;5028414;28;20257;-74
2023/01/30 12:03:17;;;;;;;7.83;5.13;;;;;;;4.45;57.39;96759.09;5027486;28;20250;-73
2023/01/30 12:05:46;;;;;;;7.70;5.13;;;;;;;4.22;57.33;96743.50;5012116;28;20208;-73
2023/01/30 12:08:19;;;;;;;12.17;8.00;;;;;;;4.40;57.83;96760.13;5045131;28;20927;-74
2023/01/30 12:11:02;;;;;;;13.87;7.70;;;;;;;4.37;58.99;96735.41;5045629;28;20211;-73
2023/01/30 12:13:36;;;;;;;7.67;6.07;;;;;;;4.46;59.06;96747.97;5045211;28;20230;-74
2023/01/30 12:16:20;;;;;;;8.90;5.87;;;;;;;4.42;58.63;96756.63;5044746;28;20242;-73
2023/01/30 12:19:09;;;;;;;9.30;6.60;;;;;;;4.46;58.44;96747.97;5046442;28;20292;-75
2023/01/30 12:21:36;;;;;;;6.63;5.17;;;;;;;4.28;58.72;96745.91;5045040;28;20201;-74
2023/01/30 12:24:21;;;;;;;14.27;6.63;;;;;;;4.44;59.20;96738.66;5027688;28;20647;-73
2023/01/30 12:26:57;;;;;;;8.60;5.70;;;;;;;4.36;57.83;96743.13;5027998;28;20225;-74
2023/01/30 12:29:35;;;;;;;7.77;5.33;;;;;;;4.33;57.93;96744.03;5045042;28;20199;-74
2023/01/30 12:32:14;;;;;;;7.57;4.97;;;;;;;4.27;58.38;96740.78;5046001;28;20207;-74
2023/01/30 12:34:44;;;;;;;9.90;5.73;;;;;;;4.24;58.35;96735.78;5045055;28;20232;-75
2023/01/30 12:37:34;;;;;;;9.10;6.17;;;;;;;4.40;58.69;96731.91;5046134;28;20199;-75
2023/01/30 12:40:27;;;;;;;10.90;6.03;;;;;;;4.39;58.53;96725.94;5046211;28;20203;-74
2023/01/30 12:43:27;;;;;;;11.73;9.73;;;;;;;4.59;58.73;96721.16;5044214;28;20304;-76
2023/01/30 12:46:17;;;;;;;13.80;7.80;;;;;;;4.56;57.58;96728.91;5027429;28;20662;-74
2023/01/30 12:49:07;;;;;;;13.00;7.40;;;;;;;4.68;58.37;96723.44;5045120;28;20252;-74
2023/01/30 12:52:04;;;;;;;14.53;8.67;;;;;;;4.64;57.92;96729.53;5026343;28;20744;-73
2023/01/30 12:54:45;;;;;;;12.37;7.60;;;;;;;4.59;58.42;96723.72;5027875;28;20901;-76